Terminal Aerodrome Forecast
Issued by NWS Melbourne, FL

Home | Current Version | Previous Version | Text Only | Print | Product List | Glossary On
Versions: 1 2 3 4 5 6 7 8 9 10 11 12 13 14 15
000
FTUS42 KMLB 120500
TAFVRB
TAF
KVRB 120535Z 1206/1306 11005KT P6SM SCT025
     FM121400 11005KT P6SM SCT025 SCT100 BKN250
     FM121600 09010KT P6SM VCTS SCT040CB BKN250
      TEMPO 1217/1220 3SM TSRA BKN020CB OVC040
     FM122100 09010KT P6SM SCT040 BKN100
     FM130300 10005KT P6SM SCT100 BKN250=

USA.gov is the U.S. government's official web portal to all federal, state and local government web resources and services.